sensor_id;sensor_type;location;lat;lon;timestamp;temperature;humidity
40756;DHT22;26461;45.630;9.418;2022-09-14T00:02:54;24.00;92.30
40756;DHT22;26461;45.630;9.418;2022-09-14T00:06:05;24.00;92.40
40756;DHT22;26461;45.630;9.418;2022-09-14T00:09:18;24.00;92.50
40756;DHT22;26461;45.630;9.418;2022-09-14T00:12:28;23.90;92.60
40756;DHT22;26461;45.630;9.418;2022-09-14T00:15:37;23.90;92.60
40756;DHT22;26461;45.630;9.418;2022-09-14T00:18:43;23.90;92.50
40756;DHT22;26461;45.630;9.418;2022-09-14T00:21:54;23.90;92.40
40756;DHT22;26461;45.630;9.418;2022-09-14T00:25:05;23.90;92.50
40756;DHT22;26461;45.630;9.418;2022-09-14T00:28:15;23.90;92.50
40756;DHT22;26461;45.630;9.418;2022-09-14T00:31:21;23.80;92.50
40756;DHT22;26461;45.630;9.418;2022-09-14T00:34:31;23.90;92.60
40756;DHT22;26461;45.630;9.418;2022-09-14T00:37:35;23.80;92.60
40756;DHT22;26461;45.630;9.418;2022-09-14T00:40:56;23.80;92.70
40756;DHT22;26461;45.630;9.418;2022-09-14T00:47:19;23.80;92.90
40756;DHT22;26461;45.630;9.418;2022-09-14T00:50:25;23.80;93.00
40756;DHT22;26461;45.630;9.418;2022-09-14T00:53:35;23.70;93.10
40756;DHT22;26461;45.630;9.418;2022-09-14T00:56:46;23.70;93.20
40756;DHT22;26461;45.630;9.418;2022-09-14T00:59:57;23.70;93.30
40756;DHT22;26461;45.630;9.418;2022-09-14T01:03:07;23.70;93.30
40756;DHT22;26461;45.630;9.418;2022-09-14T01:13:22;23.60;93.50
40756;DHT22;26461;45.630;9.418;2022-09-14T01:16:49;23.60;93.50
40756;DHT22;26461;45.630;9.418;2022-09-14T01:20:27;23.60;93.50
40756;DHT22;26461;45.630;9.418;2022-09-14T01:23:53;23.60;93.60
40756;DHT22;26461;45.630;9.418;2022-09-14T01:30:36;23.60;93.70
40756;DHT22;26461;45.630;9.418;2022-09-14T01:33:54;23.60;93.90
40756;DHT22;26461;45.630;9.418;2022-09-14T01:37:29;23.60;93.80
40756;DHT22;26461;45.630;9.418;2022-09-14T01:40:43;23.70;93.70
40756;DHT22;26461;45.630;9.418;2022-09-14T01:44:07;23.70;93.60
40756;DHT22;26461;45.630;9.418;2022-09-14T01:51:00;23.60;93.70
40756;DHT22;26461;45.630;9.418;2022-09-14T01:54:15;23.60;93.80
40756;DHT22;26461;45.630;9.418;2022-09-14T01:57:40;23.60;93.90
40756;DHT22;26461;45.630;9.418;2022-09-14T02:00:52;23.50;93.90
40756;DHT22;26461;45.630;9.418;2022-09-14T02:04:04;23.50;93.90
40756;DHT22;26461;45.630;9.418;2022-09-14T02:07:10;23.50;93.90
40756;DHT22;26461;45.630;9.418;2022-09-14T02:10:20;23.50;93.90
40756;DHT22;26461;45.630;9.418;2022-09-14T02:13:31;23.50;93.90
40756;DHT22;26461;45.630;9.418;2022-09-14T02:16:41;23.50;93.90
40756;DHT22;26461;45.630;9.418;2022-09-14T02:19:54;23.50;94.00
40756;DHT22;26461;45.630;9.418;2022-09-14T02:23:05;23.50;94.20
40756;DHT22;26461;45.630;9.418;2022-09-14T02:26:16;23.50;94.30
40756;DHT22;26461;45.630;9.418;2022-09-14T02:29:27;23.50;94.70
40756;DHT22;26461;45.630;9.418;2022-09-14T02:32:54;23.50;94.30
40756;DHT22;26461;45.630;9.418;2022-09-14T02:36:13;23.50;94.40
40756;DHT22;26461;45.630;9.418;2022-09-14T02:40:09;23.50;94.50
40756;DHT22;26461;45.630;9.418;2022-09-14T02:43:34;23.50;94.50
40756;DHT22;26461;45.630;9.418;2022-09-14T02:50:27;23.50;94.50
40756;DHT22;26461;45.630;9.418;2022-09-14T02:56:59;23.50;94.60
40756;DHT22;26461;45.630;9.418;2022-09-14T03:00:09;23.50;94.80
40756;DHT22;26461;45.630;9.418;2022-09-14T03:03:20;23.50;94.70
40756;DHT22;26461;45.630;9.418;2022-09-14T03:06:30;23.40;94.80
40756;DHT22;26461;45.630;9.418;2022-09-14T03:09:35;23.40;94.80
40756;DHT22;26461;45.630;9.418;2022-09-14T03:12:40;23.40;94.90
40756;DHT22;26461;45.630;9.418;2022-09-14T03:15:45;23.40;94.90
40756;DHT22;26461;45.630;9.418;2022-09-14T03:18:55;23.40;94.90
40756;DHT22;26461;45.630;9.418;2022-09-14T03:22:06;23.40;95.00
40756;DHT22;26461;45.630;9.418;2022-09-14T03:25:17;23.40;95.00
40756;DHT22;26461;45.630;9.418;2022-09-14T03:28:26;23.40;95.10
40756;DHT22;26461;45.630;9.418;2022-09-14T03:31:36;23.40;95.10
40756;DHT22;26461;45.630;9.418;2022-09-14T03:34:45;23.40;95.20
40756;DHT22;26461;45.630;9.418;2022-09-14T03:37:50;23.40;95.20
40756;DHT22;26461;45.630;9.418;2022-09-14T03:40:56;23.40;95.30
40756;DHT22;26461;45.630;9.418;2022-09-14T03:44:09;23.50;95.40
40756;DHT22;26461;45.630;9.418;2022-09-14T03:47:18;23.40;95.50
40756;DHT22;26461;45.630;9.418;2022-09-14T03:50:23;23.50;95.60
40756;DHT22;26461;45.630;9.418;2022-09-14T03:53:28;23.50;95.70
40756;DHT22;26461;45.630;9.418;2022-09-14T03:56:33;23.40;95.50
40756;DHT22;26461;45.630;9.418;2022-09-14T03:59:43;23.50;95.50
40756;DHT22;26461;45.630;9.418;2022-09-14T04:02:53;23.50;95.50
40756;DHT22;26461;45.630;9.418;2022-09-14T04:06:04;23.40;95.40
40756;DHT22;26461;45.630;9.418;2022-09-14T04:09:14;23.40;95.40
40756;DHT22;26461;45.630;9.418;2022-09-14T04:12:24;23.40;95.50
40756;DHT22;26461;45.630;9.418;2022-09-14T04:15:34;23.40;95.50
40756;DHT22;26461;45.630;9.418;2022-09-14T04:18:44;23.40;95.60
40756;DHT22;26461;45.630;9.418;2022-09-14T04:21:53;23.40;95.60
40756;DHT22;26461;45.630;9.418;2022-09-14T04:24:58;23.40;95.60
40756;DHT22;26461;45.630;9.418;2022-09-14T04:28:08;23.40;95.70
40756;DHT22;26461;45.630;9.418;2022-09-14T04:31:18;23.40;95.70
40756;DHT22;26461;45.630;9.418;2022-09-14T04:34:28;23.40;95.80
40756;DHT22;26461;45.630;9.418;2022-09-14T04:37:33;23.40;95.80
40756;DHT22;26461;45.630;9.418;2022-09-14T04:40:43;23.40;95.80
40756;DHT22;26461;45.630;9.418;2022-09-14T04:43:54;23.40;95.80
40756;DHT22;26461;45.630;9.418;2022-09-14T04:47:04;23.40;95.70
40756;DHT22;26461;45.630;9.418;2022-09-14T04:50:13;23.40;95.80
40756;DHT22;26461;45.630;9.418;2022-09-14T04:53:25;23.40;95.80
40756;DHT22;26461;45.630;9.418;2022-09-14T04:56:35;23.40;96.00
40756;DHT22;26461;45.630;9.418;2022-09-14T04:59:45;23.40;96.10
40756;DHT22;26461;45.630;9.418;2022-09-14T05:02:50;23.40;96.30
40756;DHT22;26461;45.630;9.418;2022-09-14T05:06:02;23.40;96.30
40756;DHT22;26461;45.630;9.418;2022-09-14T05:09:11;23.40;96.30
40756;DHT22;26461;45.630;9.418;2022-09-14T05:12:22;23.40;96.30
40756;DHT22;26461;45.630;9.418;2022-09-14T05:15:32;23.40;96.40
40756;DHT22;26461;45.630;9.418;2022-09-14T05:18:42;23.40;96.50
40756;DHT22;26461;45.630;9.418;2022-09-14T05:21:48;23.50;96.60
40756;DHT22;26461;45.630;9.418;2022-09-14T05:24:58;23.50;96.60
40756;DHT22;26461;45.630;9.418;2022-09-14T05:28:08;23.50;96.50
40756;DHT22;26461;45.630;9.418;2022-09-14T05:31:14;23.50;96.40
40756;DHT22;26461;45.630;9.418;2022-09-14T05:34:20;23.50;96.40
40756;DHT22;26461;45.630;9.418;2022-09-14T05:37:25;23.60;96.40
40756;DHT22;26461;45.630;9.418;2022-09-14T05:40:36;23.60;96.30
40756;DHT22;26461;45.630;9.418;2022-09-14T05:43:46;23.60;96.70
40756;DHT22;26461;45.630;9.418;2022-09-14T05:46:56;23.50;96.30
40756;DHT22;26461;45.630;9.418;2022-09-14T05:50:06;23.60;96.30
40756;DHT22;26461;45.630;9.418;2022-09-14T05:53:17;23.50;96.30
40756;DHT22;26461;45.630;9.418;2022-09-14T05:56:24;23.60;96.30
40756;DHT22;26461;45.630;9.418;2022-09-14T05:59:29;23.60;96.30
40756;DHT22;26461;45.630;9.418;2022-09-14T06:02:45;23.60;96.30
40756;DHT22;26461;45.630;9.418;2022-09-14T06:05:57;23.60;96.30
40756;DHT22;26461;45.630;9.418;2022-09-14T06:09:02;23.60;96.30
40756;DHT22;26461;45.630;9.418;2022-09-14T06:12:12;23.70;96.30
40756;DHT22;26461;45.630;9.418;2022-09-14T06:15:23;23.70;96.30
40756;DHT22;26461;45.630;9.418;2022-09-14T06:18:34;23.70;96.40
40756;DHT22;26461;45.630;9.418;2022-09-14T06:21:39;23.80;96.30
40756;DHT22;26461;45.630;9.418;2022-09-14T06:24:49;23.80;96.30
40756;DHT22;26461;45.630;9.418;2022-09-14T06:27:59;23.90;96.50
40756;DHT22;26461;45.630;9.418;2022-09-14T06:31:13;23.90;96.50
40756;DHT22;26461;45.630;9.418;2022-09-14T06:34:23;24.00;96.60
40756;DHT22;26461;45.630;9.418;2022-09-14T06:37:34;23.90;96.60
40756;DHT22;26461;45.630;9.418;2022-09-14T06:41:00;24.00;96.70
40756;DHT22;26461;45.630;9.418;2022-09-14T06:44:05;24.00;96.80
40756;DHT22;26461;45.630;9.418;2022-09-14T06:47:10;24.00;96.90
40756;DHT22;26461;45.630;9.418;2022-09-14T06:50:20;24.00;97.00
40756;DHT22;26461;45.630;9.418;2022-09-14T06:53:30;23.90;97.10
40756;DHT22;26461;45.630;9.418;2022-09-14T06:56:37;23.90;97.30
40756;DHT22;26461;45.630;9.418;2022-09-14T06:59:48;23.90;97.40
40756;DHT22;26461;45.630;9.418;2022-09-14T07:02:59;23.90;97.50
40756;DHT22;26461;45.630;9.418;2022-09-14T07:06:14;23.80;97.50
40756;DHT22;26461;45.630;9.418;2022-09-14T07:09:24;23.80;97.60
40756;DHT22;26461;45.630;9.418;2022-09-14T07:12:34;23.90;97.70
40756;DHT22;26461;45.630;9.418;2022-09-14T07:15:50;23.80;97.80
40756;DHT22;26461;45.630;9.418;2022-09-14T07:19:03;23.80;97.90
40756;DHT22;26461;45.630;9.418;2022-09-14T07:22:14;23.80;98.10
40756;DHT22;26461;45.630;9.418;2022-09-14T07:25:24;23.90;98.10
40756;DHT22;26461;45.630;9.418;2022-09-14T07:28:35;24.00;98.20
40756;DHT22;26461;45.630;9.418;2022-09-14T07:31:51;24.10;98.00
40756;DHT22;26461;45.630;9.418;2022-09-14T07:35:01;24.00;97.90
40756;DHT22;26461;45.630;9.418;2022-09-14T07:38:10;24.00;98.00
40756;DHT22;26461;45.630;9.418;2022-09-14T07:41:22;24.00;98.20
40756;DHT22;26461;45.630;9.418;2022-09-14T07:44:32;24.00;98.30
40756;DHT22;26461;45.630;9.418;2022-09-14T07:47:42;23.90;98.60
40756;DHT22;26461;45.630;9.418;2022-09-14T07:51:01;24.00;98.90
40756;DHT22;26461;45.630;9.418;2022-09-14T07:54:13;23.90;99.00
40756;DHT22;26461;45.630;9.418;2022-09-14T07:57:24;23.90;99.40
40756;DHT22;26461;45.630;9.418;2022-09-14T08:00:34;24.00;99.10
40756;DHT22;26461;45.630;9.418;2022-09-14T08:03:45;24.00;99.00
40756;DHT22;26461;45.630;9.418;2022-09-14T08:06:55;24.00;98.90
40756;DHT22;26461;45.630;9.418;2022-09-14T08:10:05;24.00;98.90
40756;DHT22;26461;45.630;9.418;2022-09-14T08:13:15;24.10;99.00
40756;DHT22;26461;45.630;9.418;2022-09-14T08:16:28;24.00;98.70
40756;DHT22;26461;45.630;9.418;2022-09-14T08:19:34;24.00;99.20
40756;DHT22;26461;45.630;9.418;2022-09-14T08:22:44;24.00;98.90
40756;DHT22;26461;45.630;9.418;2022-09-14T08:25:54;24.00;98.80
40756;DHT22;26461;45.630;9.418;2022-09-14T08:29:04;24.00;99.00
40756;DHT22;26461;45.630;9.418;2022-09-14T08:32:11;24.00;99.00
40756;DHT22;26461;45.630;9.418;2022-09-14T08:35:22;24.00;99.00
40756;DHT22;26461;45.630;9.418;2022-09-14T08:38:33;24.00;99.10
40756;DHT22;26461;45.630;9.418;2022-09-14T08:45:01;24.00;99.10
40756;DHT22;26461;45.630;9.418;2022-09-14T08:48:21;24.00;99.50
40756;DHT22;26461;45.630;9.418;2022-09-14T08:51:32;24.00;99.50
40756;DHT22;26461;45.630;9.418;2022-09-14T08:54:43;24.00;99.90
40756;DHT22;26461;45.630;9.418;2022-09-14T09:02:01;24.10;99.80
40756;DHT22;26461;45.630;9.418;2022-09-14T09:12:21;24.10;99.40
40756;DHT22;26461;45.630;9.418;2022-09-14T09:15:36;24.10;99.40
40756;DHT22;26461;45.630;9.418;2022-09-14T09:19:04;24.10;99.20
40756;DHT22;26461;45.630;9.418;2022-09-14T09:22:15;24.10;99.40
40756;DHT22;26461;45.630;9.418;2022-09-14T09:25:30;24.20;99.20
40756;DHT22;26461;45.630;9.418;2022-09-14T09:28:51;24.30;99.20
40756;DHT22;26461;45.630;9.418;2022-09-14T09:32:05;24.40;98.90
40756;DHT22;26461;45.630;9.418;2022-09-14T09:35:22;24.50;98.90
40756;DHT22;26461;45.630;9.418;2022-09-14T09:38:39;24.60;98.90
40756;DHT22;26461;45.630;9.418;2022-09-14T09:48:56;24.90;98.20
40756;DHT22;26461;45.630;9.418;2022-09-14T09:52:16;25.00;98.00
40756;DHT22;26461;45.630;9.418;2022-09-14T09:55:32;25.00;97.90
40756;DHT22;26461;45.630;9.418;2022-09-14T09:58:44;25.10;97.90
40756;DHT22;26461;45.630;9.418;2022-09-14T10:01:56;25.20;97.80
40756;DHT22;26461;45.630;9.418;2022-09-14T10:05:30;25.20;98.00
40756;DHT22;26461;45.630;9.418;2022-09-14T10:08:44;25.30;97.40
40756;DHT22;26461;45.630;9.418;2022-09-14T10:11:59;25.40;97.30
40756;DHT22;26461;45.630;9.418;2022-09-14T10:18:25;25.60;97.20
40756;DHT22;26461;45.630;9.418;2022-09-14T10:21:35;25.60;97.00
40756;DHT22;26461;45.630;9.418;2022-09-14T10:28:32;25.70;96.60
40756;DHT22;26461;45.630;9.418;2022-09-14T10:31:43;25.70;96.30
40756;DHT22;26461;45.630;9.418;2022-09-14T10:34:54;25.70;96.20
40756;DHT22;26461;45.630;9.418;2022-09-14T10:48:35;25.80;95.90
40756;DHT22;26461;45.630;9.418;2022-09-14T11:05:36;25.90;96.10
40756;DHT22;26461;45.630;9.418;2022-09-14T11:08:55;26.00;96.40
40756;DHT22;26461;45.630;9.418;2022-09-14T11:26:35;26.30;94.60
40756;DHT22;26461;45.630;9.418;2022-09-14T11:29:52;26.30;94.60
40756;DHT22;26461;45.630;9.418;2022-09-14T11:33:25;26.30;94.80
40756;DHT22;26461;45.630;9.418;2022-09-14T11:36:40;26.40;94.90
40756;DHT22;26461;45.630;9.418;2022-09-14T11:40:07;26.40;94.00
40756;DHT22;26461;45.630;9.418;2022-09-14T11:43:33;26.40;94.10
40756;DHT22;26461;45.630;9.418;2022-09-14T11:46:51;26.40;94.10
40756;DHT22;26461;45.630;9.418;2022-09-14T11:53:15;26.40;94.10
40756;DHT22;26461;45.630;9.418;2022-09-14T11:56:30;26.30;94.00
40756;DHT22;26461;45.630;9.418;2022-09-14T12:09:41;26.20;93.80
40756;DHT22;26461;45.630;9.418;2022-09-14T12:13:18;26.20;93.70
40756;DHT22;26461;45.630;9.418;2022-09-14T12:16:29;26.20;93.80
40756;DHT22;26461;45.630;9.418;2022-09-14T12:19:39;26.20;93.70
40756;DHT22;26461;45.630;9.418;2022-09-14T12:22:49;26.30;93.70
40756;DHT22;26461;45.630;9.418;2022-09-14T12:29:30;26.40;93.80
40756;DHT22;26461;45.630;9.418;2022-09-14T12:32:42;26.40;93.80
40756;DHT22;26461;45.630;9.418;2022-09-14T12:35:53;26.40;93.20
40756;DHT22;26461;45.630;9.418;2022-09-14T12:39:18;26.40;93.30
40756;DHT22;26461;45.630;9.418;2022-09-14T12:42:29;26.50;93.20
40756;DHT22;26461;45.630;9.418;2022-09-14T12:49:33;26.60;92.70
40756;DHT22;26461;45.630;9.418;2022-09-14T12:53:19;26.60;93.00
40756;DHT22;26461;45.630;9.418;2022-09-14T13:06:48;26.40;93.10
40756;DHT22;26461;45.630;9.418;2022-09-14T13:09:59;26.40;93.10
40756;DHT22;26461;45.630;9.418;2022-09-14T13:13:20;26.40;93.00
40756;DHT22;26461;45.630;9.418;2022-09-14T13:16:38;26.40;93.30
40756;DHT22;26461;45.630;9.418;2022-09-14T13:20:00;26.40;93.30
40756;DHT22;26461;45.630;9.418;2022-09-14T13:23:19;26.40;93.20
40756;DHT22;26461;45.630;9.418;2022-09-14T13:26:31;26.40;93.10
40756;DHT22;26461;45.630;9.418;2022-09-14T13:29:41;26.40;93.00
40756;DHT22;26461;45.630;9.418;2022-09-14T13:32:55;26.40;92.90
40756;DHT22;26461;45.630;9.418;2022-09-14T13:36:06;26.40;92.90
40756;DHT22;26461;45.630;9.418;2022-09-14T13:42:38;26.40;93.00
40756;DHT22;26461;45.630;9.418;2022-09-14T13:45:50;26.50;92.90
40756;DHT22;26461;45.630;9.418;2022-09-14T13:49:05;26.50;92.70
40756;DHT22;26461;45.630;9.418;2022-09-14T13:55:42;26.50;92.80
40756;DHT22;26461;45.630;9.418;2022-09-14T13:59:14;26.50;92.50
40756;DHT22;26461;45.630;9.418;2022-09-14T14:02:25;26.60;92.60
40756;DHT22;26461;45.630;9.418;2022-09-14T14:05:40;26.60;92.50
40756;DHT22;26461;45.630;9.418;2022-09-14T14:09:01;26.70;92.50
40756;DHT22;26461;45.630;9.418;2022-09-14T14:12:22;26.70;92.30
40756;DHT22;26461;45.630;9.418;2022-09-14T14:15:41;26.70;92.00
40756;DHT22;26461;45.630;9.418;2022-09-14T14:18:56;26.70;91.90
40756;DHT22;26461;45.630;9.418;2022-09-14T14:22:22;26.70;91.90
40756;DHT22;26461;45.630;9.418;2022-09-14T14:25:47;26.70;91.70
40756;DHT22;26461;45.630;9.418;2022-09-14T14:29:09;26.60;91.40
40756;DHT22;26461;45.630;9.418;2022-09-14T14:32:19;26.60;91.40
40756;DHT22;26461;45.630;9.418;2022-09-14T14:35:30;26.50;91.60
40756;DHT22;26461;45.630;9.418;2022-09-14T14:38:41;26.40;91.70
40756;DHT22;26461;45.630;9.418;2022-09-14T14:42:01;26.40;91.90
40756;DHT22;26461;45.630;9.418;2022-09-14T14:45:18;26.40;92.10
40756;DHT22;26461;45.630;9.418;2022-09-14T14:48:30;26.40;92.10
40756;DHT22;26461;45.630;9.418;2022-09-14T14:51:35;26.40;92.00
40756;DHT22;26461;45.630;9.418;2022-09-14T14:54:45;26.40;92.00
40756;DHT22;26461;45.630;9.418;2022-09-14T14:58:01;26.50;92.00
40756;DHT22;26461;45.630;9.418;2022-09-14T15:01:12;26.50;92.00
40756;DHT22;26461;45.630;9.418;2022-09-14T15:04:22;26.60;91.90
40756;DHT22;26461;45.630;9.418;2022-09-14T15:07:33;26.70;91.80
40756;DHT22;26461;45.630;9.418;2022-09-14T15:10:43;26.70;91.60
40756;DHT22;26461;45.630;9.418;2022-09-14T15:13:48;26.70;91.60
40756;DHT22;26461;45.630;9.418;2022-09-14T15:16:58;26.70;91.50
40756;DHT22;26461;45.630;9.418;2022-09-14T15:20:10;26.70;91.60
40756;DHT22;26461;45.630;9.418;2022-09-14T15:23:20;26.70;91.60
40756;DHT22;26461;45.630;9.418;2022-09-14T15:26:30;26.60;91.70
40756;DHT22;26461;45.630;9.418;2022-09-14T15:29:41;26.60;91.80
40756;DHT22;26461;45.630;9.418;2022-09-14T15:32:52;26.60;91.70
40756;DHT22;26461;45.630;9.418;2022-09-14T15:36:03;26.50;92.00
40756;DHT22;26461;45.630;9.418;2022-09-14T15:39:13;26.50;92.20
40756;DHT22;26461;45.630;9.418;2022-09-14T15:42:24;26.50;92.30
40756;DHT22;26461;45.630;9.418;2022-09-14T15:45:36;26.50;92.70
40756;DHT22;26461;45.630;9.418;2022-09-14T15:48:47;26.50;92.70
40756;DHT22;26461;45.630;9.418;2022-09-14T15:51:57;26.60;92.70
40756;DHT22;26461;45.630;9.418;2022-09-14T15:55:10;26.60;92.60
40756;DHT22;26461;45.630;9.418;2022-09-14T15:58:20;26.70;92.50
40756;DHT22;26461;45.630;9.418;2022-09-14T16:01:30;26.70;92.30
40756;DHT22;26461;45.630;9.418;2022-09-14T16:04:40;26.70;92.40
40756;DHT22;26461;45.630;9.418;2022-09-14T16:07:54;26.70;92.40
40756;DHT22;26461;45.630;9.418;2022-09-14T16:11:08;26.70;92.40
40756;DHT22;26461;45.630;9.418;2022-09-14T16:14:18;26.70;92.30
40756;DHT22;26461;45.630;9.418;2022-09-14T16:17:28;26.70;92.60
40756;DHT22;26461;45.630;9.418;2022-09-14T16:20:38;26.80;92.60
40756;DHT22;26461;45.630;9.418;2022-09-14T16:23:54;26.80;92.60
40756;DHT22;26461;45.630;9.418;2022-09-14T16:27:05;26.80;92.50
40756;DHT22;26461;45.630;9.418;2022-09-14T16:30:16;26.70;92.50
40756;DHT22;26461;45.630;9.418;2022-09-14T16:33:28;26.80;92.70
40756;DHT22;26461;45.630;9.418;2022-09-14T16:36:40;26.70;92.70
40756;DHT22;26461;45.630;9.418;2022-09-14T16:39:51;26.60;92.80
40756;DHT22;26461;45.630;9.418;2022-09-14T16:43:01;26.60;92.80
40756;DHT22;26461;45.630;9.418;2022-09-14T16:46:13;26.60;93.00
40756;DHT22;26461;45.630;9.418;2022-09-14T16:49:25;26.60;93.00
40756;DHT22;26461;45.630;9.418;2022-09-14T16:52:35;26.50;93.00
40756;DHT22;26461;45.630;9.418;2022-09-14T16:55:45;26.50;93.30
40756;DHT22;26461;45.630;9.418;2022-09-14T16:58:57;26.40;93.30
40756;DHT22;26461;45.630;9.418;2022-09-14T17:02:02;26.40;93.40
40756;DHT22;26461;45.630;9.418;2022-09-14T17:05:13;26.30;93.70
40756;DHT22;26461;45.630;9.418;2022-09-14T17:08:23;26.30;93.70
40756;DHT22;26461;45.630;9.418;2022-09-14T17:11:34;26.20;93.80
40756;DHT22;26461;45.630;9.418;2022-09-14T17:14:45;26.20;94.00
40756;DHT22;26461;45.630;9.418;2022-09-14T17:17:56;26.10;94.20
40756;DHT22;26461;45.630;9.418;2022-09-14T17:21:12;26.10;94.30
40756;DHT22;26461;45.630;9.418;2022-09-14T17:24:25;26.00;94.30
40756;DHT22;26461;45.630;9.418;2022-09-14T17:27:35;26.00;94.50
40756;DHT22;26461;45.630;9.418;2022-09-14T17:30:56;25.90;94.60
40756;DHT22;26461;45.630;9.418;2022-09-14T17:34:08;25.90;94.70
40756;DHT22;26461;45.630;9.418;2022-09-14T17:37:19;25.80;94.80
40756;DHT22;26461;45.630;9.418;2022-09-14T17:40:31;25.80;95.00
40756;DHT22;26461;45.630;9.418;2022-09-14T17:43:48;25.70;95.20
40756;DHT22;26461;45.630;9.418;2022-09-14T17:47:02;25.60;95.30
40756;DHT22;26461;45.630;9.418;2022-09-14T17:50:10;25.60;95.50
40756;DHT22;26461;45.630;9.418;2022-09-14T17:53:20;25.50;95.60
40756;DHT22;26461;45.630;9.418;2022-09-14T17:56:32;25.50;95.70
40756;DHT22;26461;45.630;9.418;2022-09-14T17:59:42;25.50;95.80
40756;DHT22;26461;45.630;9.418;2022-09-14T18:02:53;25.40;95.90
40756;DHT22;26461;45.630;9.418;2022-09-14T18:06:07;25.40;96.00
40756;DHT22;26461;45.630;9.418;2022-09-14T18:09:21;25.40;96.10
40756;DHT22;26461;45.630;9.418;2022-09-14T18:12:32;25.30;96.20
40756;DHT22;26461;45.630;9.418;2022-09-14T18:15:45;25.30;96.30
40756;DHT22;26461;45.630;9.418;2022-09-14T18:18:57;25.30;96.50
40756;DHT22;26461;45.630;9.418;2022-09-14T18:22:07;25.20;96.50
40756;DHT22;26461;45.630;9.418;2022-09-14T18:25:18;25.20;96.60
40756;DHT22;26461;45.630;9.418;2022-09-14T18:28:28;25.20;96.60
40756;DHT22;26461;45.630;9.418;2022-09-14T18:31:38;25.30;97.00
40756;DHT22;26461;45.630;9.418;2022-09-14T18:34:48;25.30;96.70
40756;DHT22;26461;45.630;9.418;2022-09-14T18:37:58;25.30;96.80
40756;DHT22;26461;45.630;9.418;2022-09-14T18:41:10;25.30;96.70
40756;DHT22;26461;45.630;9.418;2022-09-14T18:44:21;25.30;96.80
40756;DHT22;26461;45.630;9.418;2022-09-14T18:47:32;25.30;96.90
40756;DHT22;26461;45.630;9.418;2022-09-14T18:50:39;25.30;96.90
40756;DHT22;26461;45.630;9.418;2022-09-14T18:53:48;25.20;97.00
40756;DHT22;26461;45.630;9.418;2022-09-14T18:57:02;25.20;97.00
40756;DHT22;26461;45.630;9.418;2022-09-14T19:00:16;25.20;97.30
40756;DHT22;26461;45.630;9.418;2022-09-14T19:03:31;25.20;97.30
40756;DHT22;26461;45.630;9.418;2022-09-14T19:06:44;25.20;97.30
40756;DHT22;26461;45.630;9.418;2022-09-14T19:09:56;25.10;97.30
40756;DHT22;26461;45.630;9.418;2022-09-14T19:13:08;25.10;97.30
40756;DHT22;26461;45.630;9.418;2022-09-14T19:16:19;25.10;97.40
40756;DHT22;26461;45.630;9.418;2022-09-14T19:19:34;25.10;97.50
40756;DHT22;26461;45.630;9.418;2022-09-14T19:22:48;25.00;97.50
40756;DHT22;26461;45.630;9.418;2022-09-14T19:26:08;25.00;97.60
40756;DHT22;26461;45.630;9.418;2022-09-14T19:29:23;25.00;97.90
40756;DHT22;26461;45.630;9.418;2022-09-14T19:32:33;24.90;98.10
40756;DHT22;26461;45.630;9.418;2022-09-14T19:35:44;24.90;98.20
40756;DHT22;26461;45.630;9.418;2022-09-14T19:38:54;24.90;98.30
40756;DHT22;26461;45.630;9.418;2022-09-14T19:42:07;24.80;98.30
40756;DHT22;26461;45.630;9.418;2022-09-14T19:45:18;24.80;98.40
40756;DHT22;26461;45.630;9.418;2022-09-14T19:48:32;24.70;98.40
40756;DHT22;26461;45.630;9.418;2022-09-14T19:52:08;24.70;98.60
40756;DHT22;26461;45.630;9.418;2022-09-14T19:55:19;24.70;98.60
40756;DHT22;26461;45.630;9.418;2022-09-14T19:58:38;24.70;98.60
40756;DHT22;26461;45.630;9.418;2022-09-14T20:01:45;24.60;98.60
40756;DHT22;26461;45.630;9.418;2022-09-14T20:04:57;24.60;98.70
40756;DHT22;26461;45.630;9.418;2022-09-14T20:08:08;24.60;98.60
40756;DHT22;26461;45.630;9.418;2022-09-14T20:11:23;24.60;98.60
40756;DHT22;26461;45.630;9.418;2022-09-14T20:14:31;24.60;98.60
40756;DHT22;26461;45.630;9.418;2022-09-14T20:17:46;24.60;98.60
40756;DHT22;26461;45.630;9.418;2022-09-14T20:20:57;24.60;98.70
40756;DHT22;26461;45.630;9.418;2022-09-14T20:24:14;24.60;98.60
40756;DHT22;26461;45.630;9.418;2022-09-14T20:27:26;24.60;98.60
40756;DHT22;26461;45.630;9.418;2022-09-14T20:30:40;24.60;98.60
40756;DHT22;26461;45.630;9.418;2022-09-14T20:33:47;24.60;98.50
40756;DHT22;26461;45.630;9.418;2022-09-14T20:36:58;24.60;98.40
40756;DHT22;26461;45.630;9.418;2022-09-14T20:40:10;24.60;98.40
40756;DHT22;26461;45.630;9.418;2022-09-14T20:43:23;24.60;98.20
40756;DHT22;26461;45.630;9.418;2022-09-14T20:46:34;24.60;98.20
40756;DHT22;26461;45.630;9.418;2022-09-14T20:49:40;24.60;98.20
40756;DHT22;26461;45.630;9.418;2022-09-14T20:52:54;24.60;98.40
40756;DHT22;26461;45.630;9.418;2022-09-14T20:56:12;24.50;98.40
40756;DHT22;26461;45.630;9.418;2022-09-14T20:59:24;24.50;98.40
40756;DHT22;26461;45.630;9.418;2022-09-14T21:02:34;24.50;98.70
40756;DHT22;26461;45.630;9.418;2022-09-14T21:05:44;24.50;98.70
40756;DHT22;26461;45.630;9.418;2022-09-14T21:09:24;24.40;98.60
40756;DHT22;26461;45.630;9.418;2022-09-14T21:12:37;24.40;98.60
40756;DHT22;26461;45.630;9.418;2022-09-14T21:15:48;24.40;98.60
40756;DHT22;26461;45.630;9.418;2022-09-14T21:19:07;24.30;98.60
40756;DHT22;26461;45.630;9.418;2022-09-14T21:22:18;24.30;98.60
40756;DHT22;26461;45.630;9.418;2022-09-14T21:25:31;24.30;98.60
40756;DHT22;26461;45.630;9.418;2022-09-14T21:28:41;24.30;98.80
40756;DHT22;26461;45.630;9.418;2022-09-14T21:31:46;24.30;98.80
40756;DHT22;26461;45.630;9.418;2022-09-14T21:34:57;24.20;98.50
40756;DHT22;26461;45.630;9.418;2022-09-14T21:38:07;24.20;98.40
40756;DHT22;26461;45.630;9.418;2022-09-14T21:41:19;24.20;98.50
40756;DHT22;26461;45.630;9.418;2022-09-14T21:44:34;24.10;98.50
40756;DHT22;26461;45.630;9.418;2022-09-14T21:47:52;24.10;98.50
40756;DHT22;26461;45.630;9.418;2022-09-14T21:51:12;24.10;98.50
40756;DHT22;26461;45.630;9.418;2022-09-14T21:54:23;24.10;98.40
40756;DHT22;26461;45.630;9.418;2022-09-14T21:57:35;24.00;98.50
40756;DHT22;26461;45.630;9.418;2022-09-14T22:00:45;24.00;99.10
40756;DHT22;26461;45.630;9.418;2022-09-14T22:03:56;23.90;98.80
40756;DHT22;26461;45.630;9.418;2022-09-14T22:07:07;23.90;98.80
40756;DHT22;26461;45.630;9.418;2022-09-14T22:10:18;23.90;98.90
40756;DHT22;26461;45.630;9.418;2022-09-14T22:13:29;23.90;99.00
40756;DHT22;26461;45.630;9.418;2022-09-14T22:16:40;23.90;99.00
40756;DHT22;26461;45.630;9.418;2022-09-14T22:19:50;23.90;99.00
40756;DHT22;26461;45.630;9.418;2022-09-14T22:23:05;23.90;99.10
40756;DHT22;26461;45.630;9.418;2022-09-14T22:26:15;23.90;99.00